createdAt,value
2022-12-01T00:01:28.342Z,11.57
2022-12-01T00:03:57.682Z,14.27
2022-12-01T00:06:25.430Z,10.70
2022-12-01T00:09:14.153Z,11.00
2022-12-01T00:11:49.643Z,11.40
2022-12-01T00:14:17.422Z,12.75
2022-12-01T00:16:45.653Z,12.55
2022-12-01T00:19:13.527Z,12.32
2022-12-01T00:21:41.272Z,10.05
2022-12-01T00:24:10.985Z,11.07
2022-12-01T00:26:39.314Z,11.88
2022-12-01T00:29:08.426Z,10.63
2022-12-01T00:31:36.650Z,10.52
2022-12-01T00:34:09.462Z,11.57
2022-12-01T00:36:41.035Z,7.10
2022-12-01T00:39:09.142Z,10.55
2022-12-01T00:41:36.933Z,9.65
2022-12-01T00:44:05.167Z,10.60
2022-12-01T00:46:34.299Z,8.73
2022-12-01T00:49:01.961Z,10.27
2022-12-01T00:51:29.628Z,10.02
2022-12-01T00:53:57.375Z,10.68
2022-12-01T00:56:25.173Z,9.30
2022-12-01T00:58:52.852Z,11.40
2022-12-01T01:01:20.681Z,9.98
2022-12-01T01:03:50.218Z,10.80
2022-12-01T01:06:17.950Z,9.13
2022-12-01T01:08:46.173Z,9.80
2022-12-01T01:11:13.921Z,10.70
2022-12-01T01:13:41.653Z,9.80
2022-12-01T01:16:15.915Z,9.55
2022-12-01T01:18:43.939Z,10.05
2022-12-01T01:21:16.068Z,9.50
2022-12-01T01:23:44.199Z,9.98
2022-12-01T01:26:14.913Z,11.00
2022-12-01T01:28:42.656Z,8.88
2022-12-01T01:31:12.848Z,9.98
2022-12-01T01:33:40.624Z,8.68
2022-12-01T01:36:08.481Z,7.97
2022-12-01T01:38:38.071Z,9.48
2022-12-01T01:41:07.264Z,8.00
2022-12-01T01:43:47.175Z,9.13
2022-12-01T01:46:17.524Z,8.25
2022-12-01T01:48:50.841Z,8.20
2022-12-01T01:51:23.008Z,8.32
2022-12-01T01:53:55.567Z,9.23
2022-12-01T01:56:24.062Z,8.05
2022-12-01T01:58:53.325Z,9.95
2022-12-01T02:01:21.134Z,9.05
2022-12-01T02:03:52.439Z,9.38
2022-12-01T02:06:20.487Z,6.88
2022-12-01T02:08:48.580Z,8.93
2022-12-01T02:11:48.603Z,9.05
2022-12-01T02:14:42.261Z,7.93
2022-12-01T02:17:24.006Z,9.93
2022-12-01T02:20:13.162Z,8.80
2022-12-01T02:22:56.671Z,8.23
2022-12-01T02:25:36.263Z,8.32
2022-12-01T02:28:34.824Z,8.82
2022-12-01T02:31:11.102Z,9.68
2022-12-01T02:33:49.563Z,10.05
2022-12-01T02:36:22.176Z,9.70
2022-12-01T02:38:55.536Z,9.52
2022-12-01T02:41:29.618Z,7.10
2022-12-01T02:44:04.325Z,9.23
2022-12-01T02:46:38.013Z,10.25
2022-12-01T02:49:11.236Z,7.00
2022-12-01T02:51:44.557Z,9.65
2022-12-01T02:54:14.594Z,8.00
2022-12-01T02:56:45.466Z,9.85
2022-12-01T02:59:15.126Z,10.40
2022-12-01T03:02:00.454Z,8.43
2022-12-01T03:04:45.803Z,11.55
2022-12-01T03:07:27.149Z,9.20
2022-12-01T03:10:14.052Z,10.98
2022-12-01T03:12:54.850Z,9.50
2022-12-01T03:15:31.610Z,9.00
2022-12-01T03:18:08.035Z,9.70
2022-12-01T03:20:41.729Z,6.57
2022-12-01T03:23:14.121Z,10.75
2022-12-01T03:25:46.107Z,9.88
2022-12-01T03:28:23.313Z,10.35
2022-12-01T03:30:56.484Z,10.38
2022-12-01T03:33:32.356Z,9.45
2022-12-01T03:36:05.819Z,11.73
2022-12-01T03:38:36.248Z,11.73
2022-12-01T03:44:06.655Z,11.02
2022-12-01T03:46:41.255Z,11.23
2022-12-01T03:49:10.979Z,10.10
2022-12-01T03:51:45.721Z,11.70
2022-12-01T03:54:20.370Z,10.23
2022-12-01T03:56:53.086Z,11.32
2022-12-01T03:59:23.593Z,10.77
2022-12-01T04:01:51.967Z,11.75
2022-12-01T04:04:21.050Z,11.13
2022-12-01T04:06:51.275Z,11.93
2022-12-01T04:09:19.140Z,10.40
2022-12-01T04:12:04.394Z,11.73
2022-12-01T04:14:32.233Z,9.65
2022-12-01T04:17:00.002Z,10.88
2022-12-01T04:19:29.035Z,10.57
2022-12-01T04:21:56.740Z,11.68
2022-12-01T04:24:24.468Z,10.77
2022-12-01T04:26:52.136Z,10.55
2022-12-01T04:29:20.007Z,10.82
2022-12-01T04:31:47.786Z,11.90
2022-12-01T04:34:15.559Z,9.82
2022-12-01T04:36:44.595Z,10.70
2022-12-01T04:39:12.454Z,11.18
2022-12-01T04:41:40.135Z,12.43
2022-12-01T04:44:08.343Z,11.05
2022-12-01T04:46:36.137Z,12.45
2022-12-01T04:49:04.043Z,11.95
2022-12-01T04:51:31.792Z,12.52
2022-12-01T04:54:02.819Z,11.82
2022-12-01T04:56:30.534Z,12.50
2022-12-01T04:58:58.952Z,12.15
2022-12-01T05:01:26.685Z,11.75
2022-12-01T05:03:54.543Z,11.00
2022-12-01T05:06:23.803Z,11.88
2022-12-01T05:08:52.116Z,12.15
2022-12-01T05:11:21.198Z,11.65
2022-12-01T05:13:50.103Z,11.35
2022-12-01T05:16:20.630Z,11.93
2022-12-01T05:18:50.307Z,11.60
2022-12-01T05:21:18.264Z,10.68
2022-12-01T05:23:46.488Z,11.90
2022-12-01T05:26:14.287Z,11.60
2022-12-01T05:28:43.311Z,11.23
2022-12-01T05:31:11.114Z,12.68
2022-12-01T05:33:38.951Z,11.55
2022-12-01T05:36:07.248Z,13.52
2022-12-01T05:38:34.983Z,12.90
2022-12-01T05:41:02.794Z,10.40
2022-12-01T05:43:30.676Z,13.88
2022-12-01T05:45:59.874Z,13.55
2022-12-01T05:48:27.786Z,12.40
2022-12-01T05:50:55.503Z,12.75
2022-12-01T05:53:23.168Z,12.38
2022-12-01T05:55:54.355Z,11.05
2022-12-01T05:58:22.224Z,12.00
2022-12-01T06:00:49.902Z,12.30
2022-12-01T06:03:19.024Z,11.88
2022-12-01T06:05:46.760Z,12.13
2022-12-01T06:08:14.493Z,11.93
2022-12-01T06:10:42.256Z,11.88
2022-12-01T06:13:09.950Z,9.68
2022-12-01T06:15:37.634Z,11.95
2022-12-01T06:18:05.683Z,13.02
2022-12-01T06:20:34.727Z,11.40
2022-12-01T06:23:02.409Z,11.75
2022-12-01T06:25:30.180Z,13.13
2022-12-01T06:27:58.457Z,11.95
2022-12-01T06:30:26.886Z,10.60
2022-12-01T06:32:54.788Z,12.10
2022-12-01T06:35:22.679Z,11.20
2022-12-01T06:37:53.952Z,9.10
2022-12-01T06:40:22.177Z,11.18
2022-12-01T06:42:49.951Z,11.95
2022-12-01T06:45:17.889Z,12.45
2022-12-01T06:47:48.105Z,11.82
2022-12-01T06:50:16.088Z,11.80
2022-12-01T06:52:43.834Z,10.48
2022-12-01T06:55:12.903Z,11.23
2022-12-01T06:57:41.805Z,10.05
2022-12-01T07:00:11.179Z,11.32
2022-12-01T07:02:39.732Z,11.45
2022-12-01T07:05:08.143Z,9.32
2022-12-01T07:07:37.414Z,11.68
2022-12-01T07:10:05.628Z,10.00
2022-12-01T07:12:34.949Z,10.88
2022-12-01T07:15:02.875Z,11.13
2022-12-01T07:17:30.692Z,10.88
2022-12-01T07:19:58.714Z,11.40
2022-12-01T07:22:32.231Z,10.73
2022-12-01T07:25:00.494Z,12.20
2022-12-01T07:27:30.960Z,12.82
2022-12-01T07:30:00.111Z,9.45
2022-12-01T07:32:27.930Z,11.68
2022-12-01T07:34:55.627Z,12.45
2022-12-01T07:37:23.431Z,12.45
2022-12-01T07:39:51.370Z,11.40
2022-12-01T07:42:19.222Z,10.80
2022-12-01T07:44:46.954Z,10.75
2022-12-01T07:47:16.764Z,10.30
2022-12-01T07:49:44.531Z,10.13
2022-12-01T07:52:12.311Z,9.88
2022-12-01T07:54:40.098Z,9.88
2022-12-01T07:57:08.357Z,12.68
2022-12-01T07:59:36.173Z,9.95
2022-12-01T08:02:04.027Z,10.30
2022-12-01T08:04:33.194Z,11.43
2022-12-01T08:07:01.657Z,11.40
2022-12-01T08:09:29.377Z,12.05
2022-12-01T08:11:57.303Z,12.32
2022-12-01T08:14:27.477Z,8.20
2022-12-01T08:16:55.246Z,9.38
2022-12-01T08:19:23.063Z,8.98
2022-12-01T08:21:52.167Z,10.93
2022-12-01T08:24:19.884Z,10.77
2022-12-01T08:26:47.680Z,11.15
2022-12-01T08:29:19.946Z,9.48
2022-12-01T08:31:51.584Z,10.68
2022-12-01T08:34:19.444Z,10.75
2022-12-01T08:36:47.322Z,11.90
2022-12-01T08:39:16.828Z,11.27
2022-12-01T08:41:44.685Z,11.18
2022-12-01T08:44:12.646Z,10.95
2022-12-01T08:46:40.558Z,12.10
2022-12-01T08:49:08.443Z,11.45
2022-12-01T08:51:37.106Z,11.60
2022-12-01T08:54:05.156Z,10.02
2022-12-01T08:56:36.762Z,10.45
2022-12-01T08:59:05.744Z,10.13
2022-12-01T09:01:33.872Z,10.93
2022-12-01T09:04:07.739Z,11.90
2022-12-01T09:06:40.376Z,11.43
2022-12-01T09:09:08.701Z,13.48
2022-12-01T09:14:40.338Z,11.93
2022-12-01T09:17:08.687Z,10.60
2022-12-01T09:19:37.186Z,8.75
2022-12-01T09:22:08.105Z,11.48
2022-12-01T09:24:36.056Z,10.48
2022-12-01T09:27:07.116Z,10.88
2022-12-01T09:29:34.972Z,10.80
2022-12-01T09:32:02.694Z,9.90
2022-12-01T09:34:30.440Z,11.02
2022-12-01T09:36:59.324Z,10.95
2022-12-01T09:39:27.211Z,11.23
2022-12-01T09:41:58.888Z,12.68
2022-12-01T09:44:37.045Z,10.55
2022-12-01T09:47:11.755Z,11.15
2022-12-01T09:49:46.058Z,11.98
2022-12-01T09:52:17.931Z,10.02
2022-12-01T09:54:45.847Z,10.70
2022-12-01T09:57:19.060Z,9.73
2022-12-01T09:59:48.472Z,11.95
2022-12-01T10:02:28.927Z,11.27
2022-12-01T10:05:00.165Z,10.95
2022-12-01T10:07:32.103Z,10.25
2022-12-01T10:10:02.465Z,10.25
2022-12-01T10:12:33.363Z,10.35
2022-12-01T10:15:16.371Z,12.02
2022-12-01T10:17:56.655Z,10.65
2022-12-01T10:20:29.556Z,10.93
2022-12-01T10:23:31.053Z,9.27
2022-12-01T10:26:01.937Z,12.02
2022-12-01T10:28:51.489Z,10.27
2022-12-01T10:31:25.750Z,10.18
2022-12-01T10:34:01.845Z,10.38
2022-12-01T10:36:31.689Z,11.30
2022-12-01T10:38:59.848Z,11.43
2022-12-01T10:41:30.918Z,11.48
2022-12-01T10:44:01.370Z,4.97
2022-12-01T10:46:38.999Z,10.00
2022-12-01T10:49:10.498Z,11.02
2022-12-01T10:51:53.896Z,9.40
2022-12-01T10:54:22.980Z,11.32
2022-12-01T10:56:56.276Z,10.32
2022-12-01T10:59:29.291Z,10.55
2022-12-01T11:01:59.601Z,11.27
2022-12-01T11:04:35.943Z,10.70
2022-12-01T11:07:04.919Z,9.80
2022-12-01T11:09:32.812Z,9.05
2022-12-01T11:12:02.776Z,9.55
2022-12-01T11:14:38.182Z,9.18
2022-12-01T11:17:30.707Z,10.18
2022-12-01T11:19:58.832Z,9.50
2022-12-01T11:22:28.383Z,9.85
2022-12-01T11:25:02.084Z,9.38
2022-12-01T11:27:35.164Z,8.55
2022-12-01T11:30:06.577Z,7.50
2022-12-01T11:32:40.768Z,10.40
2022-12-01T11:35:19.297Z,10.00
2022-12-01T11:38:13.337Z,11.57
2022-12-01T11:40:45.818Z,9.25
2022-12-01T11:43:25.028Z,9.65
2022-12-01T11:45:54.587Z,10.48
2022-12-01T11:48:29.755Z,10.30
2022-12-01T11:51:08.585Z,10.73
2022-12-01T11:53:38.587Z,9.98
2022-12-01T11:56:18.582Z,10.23
2022-12-01T11:58:48.137Z,11.02
2022-12-01T12:01:36.120Z,11.10
2022-12-01T12:04:20.770Z,11.88
2022-12-01T12:06:57.808Z,10.52
2022-12-01T12:09:44.915Z,9.70
2022-12-01T12:12:27.606Z,10.73
2022-12-01T12:15:06.407Z,10.10
2022-12-01T12:17:52.202Z,9.90
2022-12-01T12:20:34.214Z,9.48
2022-12-01T12:23:20.051Z,10.85
2022-12-01T12:25:58.646Z,10.52
2022-12-01T12:28:37.584Z,9.88
2022-12-01T12:31:15.227Z,10.30
2022-12-01T12:33:57.497Z,10.02
2022-12-01T12:36:39.011Z,9.82
2022-12-01T12:39:19.570Z,10.32
2022-12-01T12:41:51.418Z,10.15
2022-12-01T12:44:41.986Z,10.68
2022-12-01T12:47:21.331Z,8.88
2022-12-01T12:49:56.771Z,9.98
2022-12-01T12:52:30.052Z,9.40
2022-12-01T12:55:01.597Z,11.10
2022-12-01T12:57:34.610Z,10.35
2022-12-01T13:00:07.558Z,9.48
2022-12-01T13:02:40.608Z,8.77
2022-12-01T13:05:15.951Z,8.73
2022-12-01T13:07:50.858Z,9.43
2022-12-01T13:10:26.654Z,9.13
2022-12-01T13:13:01.266Z,8.50
2022-12-01T13:15:31.576Z,9.43
2022-12-01T13:18:04.411Z,9.15
2022-12-01T13:20:34.679Z,10.13
2022-12-01T13:23:04.462Z,9.50
2022-12-01T13:25:39.483Z,9.18
2022-12-01T13:28:16.100Z,8.77
2022-12-01T13:30:59.457Z,9.40
2022-12-01T13:33:27.693Z,9.48
2022-12-01T13:36:23.053Z,9.68
2022-12-01T13:38:57.543Z,8.95
2022-12-01T13:41:29.257Z,8.63
2022-12-01T13:44:04.007Z,9.02
2022-12-01T13:46:34.550Z,9.30
2022-12-01T13:49:05.143Z,9.63
2022-12-01T13:52:06.298Z,8.85
2022-12-01T13:54:37.421Z,9.20
2022-12-01T13:57:11.877Z,9.07
2022-12-01T14:02:40.046Z,10.80
2022-12-01T14:05:41.117Z,8.40
2022-12-01T14:08:19.660Z,12.65
2022-12-01T14:10:57.904Z,9.48
2022-12-01T14:13:26.755Z,10.23
2022-12-01T14:15:57.510Z,9.93
2022-12-01T14:18:34.639Z,18.58
2022-12-01T14:21:04.498Z,10.15
2022-12-01T14:23:34.564Z,9.82
2022-12-01T14:26:12.550Z,10.05
2022-12-01T14:29:20.265Z,11.77
2022-12-01T14:32:25.804Z,11.50
2022-12-01T14:37:42.533Z,11.68
2022-12-01T14:40:17.006Z,10.57
2022-12-01T14:45:40.693Z,12.25
2022-12-01T14:48:13.442Z,11.23
2022-12-01T14:50:46.772Z,10.50
2022-12-01T14:53:23.524Z,10.13
2022-12-01T14:55:56.379Z,9.68
2022-12-01T14:58:28.456Z,10.60
2022-12-01T15:01:04.430Z,8.73
2022-12-01T15:03:38.135Z,8.95
2022-12-01T15:06:06.903Z,9.88
2022-12-01T15:08:58.479Z,11.27
2022-12-01T15:11:26.649Z,10.75
2022-12-01T15:13:57.317Z,10.63
2022-12-01T15:16:26.858Z,9.73
2022-12-01T15:18:54.913Z,10.30
2022-12-01T15:21:24.621Z,11.10
2022-12-01T15:23:57.708Z,10.32
2022-12-01T15:26:29.518Z,12.02
2022-12-01T15:29:16.298Z,10.82
2022-12-01T15:31:45.806Z,12.52
2022-12-01T15:34:17.049Z,11.20
2022-12-01T15:36:45.622Z,11.88
2022-12-01T15:39:16.407Z,9.60
2022-12-01T15:41:47.940Z,11.50
2022-12-01T15:44:22.831Z,8.13
2022-12-01T15:46:50.734Z,11.25
2022-12-01T15:49:20.735Z,9.80
2022-12-01T15:51:49.951Z,10.20
2022-12-01T15:54:22.447Z,10.77
2022-12-01T15:56:56.425Z,9.38
2022-12-01T15:59:31.389Z,8.57
2022-12-01T16:01:59.572Z,9.63
2022-12-01T16:04:32.382Z,10.43
2022-12-01T16:07:04.906Z,10.70
2022-12-01T16:09:36.232Z,10.60
2022-12-01T16:12:19.937Z,10.35
2022-12-01T16:15:14.116Z,9.50
2022-12-01T16:17:44.234Z,12.07
2022-12-01T16:20:26.957Z,11.18
2022-12-01T16:22:58.925Z,11.35
2022-12-01T16:25:35.124Z,11.75
2022-12-01T16:28:04.113Z,11.15
2022-12-01T16:30:39.293Z,11.90
2022-12-01T16:33:15.632Z,10.88
2022-12-01T16:35:43.483Z,11.05
2022-12-01T16:38:15.832Z,11.00
2022-12-01T16:40:44.056Z,10.43
2022-12-01T16:43:15.811Z,12.25
2022-12-01T16:45:46.407Z,12.93
2022-12-01T16:48:14.187Z,11.48
2022-12-01T16:50:41.972Z,12.40
2022-12-01T16:53:27.602Z,11.27
2022-12-01T16:56:22.149Z,11.27
2022-12-01T16:58:52.829Z,12.07
2022-12-01T17:01:58.351Z,11.68
2022-12-01T17:04:26.890Z,10.00
2022-12-01T17:06:55.392Z,10.98
2022-12-01T17:09:23.963Z,13.25
2022-12-01T17:11:52.095Z,12.15
2022-12-01T17:14:19.888Z,13.68
2022-12-01T17:16:49.168Z,12.93
2022-12-01T17:19:19.353Z,14.82
2022-12-01T17:21:47.251Z,14.23
2022-12-01T17:24:19.030Z,13.38
2022-12-01T17:26:47.369Z,14.20
2022-12-01T17:29:17.371Z,11.55
2022-12-01T17:31:45.241Z,13.93
2022-12-01T17:34:14.816Z,13.88
2022-12-01T17:36:42.877Z,13.30
2022-12-01T17:39:12.596Z,12.50
2022-12-01T17:41:43.535Z,13.52
2022-12-01T17:44:11.447Z,14.25
2022-12-01T17:46:41.506Z,11.13
2022-12-01T17:49:10.572Z,9.20
2022-12-01T17:51:40.642Z,10.15
2022-12-01T17:54:08.662Z,11.50
2022-12-01T17:56:36.492Z,11.30
2022-12-01T17:59:04.523Z,9.05
2022-12-01T18:01:32.386Z,8.27
2022-12-01T18:04:00.254Z,9.50
2022-12-01T18:06:28.906Z,10.35
2022-12-01T18:09:00.035Z,7.63
2022-12-01T18:11:28.032Z,10.95
2022-12-01T18:13:55.915Z,10.98
2022-12-01T18:16:26.381Z,9.70
2022-12-01T18:18:54.909Z,12.00
2022-12-01T18:21:24.558Z,12.50
2022-12-01T18:23:54.382Z,13.35
2022-12-01T18:26:24.533Z,13.23
2022-12-01T18:28:55.587Z,14.70
2022-12-01T18:31:23.462Z,14.90
2022-12-01T18:33:54.136Z,12.88
2022-12-01T18:36:24.394Z,11.70
2022-12-01T18:38:53.495Z,12.65
2022-12-01T18:41:23.004Z,11.95
2022-12-01T18:43:51.056Z,15.23
2022-12-01T18:46:20.927Z,15.07
2022-12-01T18:48:50.407Z,14.43
2022-12-01T18:51:18.867Z,13.75
2022-12-01T18:53:46.705Z,13.95
2022-12-01T18:56:15.776Z,14.57
2022-12-01T18:58:45.003Z,14.23
2022-12-01T19:01:21.371Z,14.73
2022-12-01T19:03:49.777Z,13.75
2022-12-01T19:06:18.220Z,14.57
2022-12-01T19:08:47.863Z,15.43
2022-12-01T19:11:16.324Z,16.95
2022-12-01T19:13:45.936Z,15.48
2022-12-01T19:16:16.329Z,18.40
2022-12-01T19:18:44.669Z,14.88
2022-12-01T19:21:15.313Z,15.90
2022-12-01T19:23:44.134Z,15.82
2022-12-01T19:26:13.853Z,15.90
2022-12-01T19:28:42.261Z,14.55
2022-12-01T19:31:14.660Z,16.45
2022-12-01T19:33:42.581Z,14.52
2022-12-01T19:36:12.973Z,13.43
2022-12-01T19:38:45.036Z,13.07
2022-12-01T19:41:13.836Z,13.07
2022-12-01T19:43:42.868Z,12.75
2022-12-01T19:46:13.965Z,13.30
2022-12-01T19:48:42.136Z,13.82
2022-12-01T19:51:17.558Z,12.95
2022-12-01T19:53:45.447Z,11.98
2022-12-01T19:56:13.356Z,12.73
2022-12-01T19:58:41.531Z,15.07
2022-12-01T20:01:11.053Z,15.43
2022-12-01T20:03:41.068Z,15.10
2022-12-01T20:06:11.936Z,14.02
2022-12-01T20:08:40.658Z,13.77
2022-12-01T20:11:09.151Z,13.55
2022-12-01T20:13:39.056Z,14.98
2022-12-01T20:16:09.221Z,13.65
2022-12-01T20:18:39.205Z,14.35
2022-12-01T20:21:10.992Z,18.10
2022-12-01T20:23:40.735Z,16.42
2022-12-01T20:26:09.135Z,15.60
2022-12-01T20:28:37.732Z,17.02
2022-12-01T20:31:10.923Z,15.45
2022-12-01T20:33:39.659Z,14.77
2022-12-01T20:36:09.805Z,13.55
2022-12-01T20:38:38.428Z,13.13
2022-12-01T20:41:07.429Z,14.70
2022-12-01T20:43:36.512Z,13.45
2022-12-01T20:46:05.816Z,14.95
2022-12-01T20:48:34.680Z,14.57
2022-12-01T20:51:03.619Z,12.65
2022-12-01T20:53:33.003Z,15.38
2022-12-01T20:56:03.303Z,13.25
2022-12-01T20:58:35.905Z,15.00
2022-12-01T21:01:09.194Z,11.98
2022-12-01T21:03:39.119Z,12.50
2022-12-01T21:06:07.872Z,11.88
2022-12-01T21:08:37.410Z,12.27
2022-12-01T21:11:06.971Z,12.35
2022-12-01T21:13:39.415Z,13.75
2022-12-01T21:16:19.024Z,11.70
2022-12-01T21:18:52.250Z,11.65
2022-12-01T21:21:27.423Z,12.77
2022-12-01T21:24:11.457Z,12.73
2022-12-01T21:26:42.031Z,10.48
2022-12-01T21:29:19.001Z,10.90
2022-12-01T21:31:47.688Z,12.18
2022-12-01T21:34:19.745Z,12.82
2022-12-01T21:36:49.628Z,12.27
2022-12-01T21:39:20.662Z,12.93
2022-12-01T21:41:49.958Z,12.13
2022-12-01T21:44:21.327Z,12.60
2022-12-01T21:46:55.239Z,12.90
2022-12-01T21:49:31.830Z,13.80
2022-12-01T21:51:59.741Z,13.35
2022-12-01T21:54:30.231Z,12.82
2022-12-01T21:56:59.530Z,13.80
2022-12-01T21:59:27.373Z,13.60
2022-12-01T22:01:57.272Z,13.80
2022-12-01T22:04:29.815Z,13.73
2022-12-01T22:06:58.750Z,12.55
2022-12-01T22:09:35.299Z,14.95
2022-12-01T22:12:17.302Z,13.50
2022-12-01T22:14:45.202Z,13.43
2022-12-01T22:17:20.072Z,13.63
2022-12-01T22:19:52.408Z,13.98
2022-12-01T22:22:25.133Z,13.70
2022-12-01T22:24:57.472Z,14.70
2022-12-01T22:27:33.143Z,13.30
2022-12-01T22:30:03.579Z,12.80
2022-12-01T22:32:41.260Z,12.27
2022-12-01T22:35:26.770Z,13.98
2022-12-01T22:37:56.612Z,13.23
2022-12-01T22:40:35.862Z,13.50
2022-12-01T22:43:22.323Z,12.77
2022-12-01T22:45:54.136Z,13.15
2022-12-01T22:48:32.739Z,12.05
2022-12-01T22:51:10.150Z,13.45
2022-12-01T22:53:37.948Z,13.20
2022-12-01T22:56:25.416Z,12.07
2022-12-01T22:58:53.373Z,13.85
2022-12-01T23:01:25.854Z,13.68
2022-12-01T23:03:56.699Z,13.90
2022-12-01T23:06:55.041Z,14.80
2022-12-01T23:09:24.016Z,12.38
2022-12-01T23:11:57.449Z,13.70
2022-12-01T23:14:25.534Z,13.13
2022-12-01T23:16:58.317Z,12.38
2022-12-01T23:19:26.282Z,14.32
2022-12-01T23:21:54.896Z,13.77
2022-12-01T23:24:22.614Z,12.88
2022-12-01T23:26:50.377Z,14.07
2022-12-01T23:29:19.524Z,13.68
2022-12-01T23:31:49.357Z,14.73
2022-12-01T23:34:18.864Z,11.80
2022-12-01T23:36:49.182Z,13.48
2022-12-01T23:39:18.739Z,14.27
2022-12-01T23:41:48.636Z,14.07
2022-12-01T23:44:21.662Z,12.15
2022-12-01T23:46:52.624Z,14.23
2022-12-01T23:49:23.406Z,12.57
2022-12-01T23:51:53.994Z,12.05
2022-12-01T23:54:25.212Z,13.20
2022-12-01T23:56:55.726Z,13.65
2022-12-01T23:59:26.300Z,13.63
